Latest Weather Observations for Kanagulk

IDV60801

Issued at 6:02 pm EDT Tuesday 3 March 2015 (issued every 30 minutes, with the page automatically refreshed every 10 minutes)

About weather observations | Map of weather stations | Latest weather observations for VIC | Other Formats
Station Details ID: 079097 Name: KANAGULK Lat: -37.12 Lon: 141.80 Height: 188.8 m
Data from the previous 72 hours. | See also: Recent months at Kanagulk
Date/Time
EDT
Temp
°C
App
Temp
°C
Dew
Point
Rel
Hum
%
Delta-T
°C
Wind Press
QNH
hPa
Press
MSL
hPa
Rain
since 9 am
mm
Dir
 
Spd
km/h
Gust
km/h
Spd
kts
Gust
kts
03/06:00pm 24.4 21.0 5.7 30 9.6 SW 13 24 7 13 1015.1 1014.6 0.0
03/05:30pm 24.5 19.6 4.3 27 10.1 SW 19 32 10 17 1015.3 1014.8 0.0
03/05:00pm 25.1 20.9 5.8 29 10.0 S 17 28 9 15 1015.3 1014.8 0.0
03/04:30pm 25.0 21.2 5.7 29 9.9 SW 15 24 8 13 1015.4 1014.9 0.0
03/04:00pm 24.3 20.1 5.6 30 9.6 SSW 17 28 9 15 1015.6 1015.1 0.0
03/03:30pm 24.7 20.8 5.5 29 9.8 SSW 15 26 8 14 1015.9 1015.4 0.0
03/03:00pm 24.9 21.1 5.7 29 9.9 S 15 28 8 15 1016.3 1015.8 0.0
03/02:30pm 23.5 19.1 4.9 30 9.4 S 17 26 9 14 1016.6 1016.1 0.0
03/02:00pm 22.5 18.6 5.4 33 8.6 SSW 15 26 8 14 1016.9 1016.4 0.0
03/01:30pm 23.0 19.5 7.1 36 8.3 S 15 22 8 12 1017.2 1016.7 0.0
03/01:00pm 21.6 18.1 7.1 39 7.5 SE 15 24 8 13 1017.7 1017.3 0.0
03/12:30pm 20.8 17.5 8.1 44 6.7 S 15 20 8 11 1018.1 1017.7 0.0
03/12:00pm 20.1 16.0 8.8 48 6.0 SSE 20 26 11 14 1018.2 1017.8 0.0
03/11:30am 20.8 16.9 9.4 48 6.1 SSE 20 30 11 16 1018.4 1018.0 0.0
03/11:00am 19.2 15.2 9.1 52 5.3 SSE 20 28 11 15 1018.3 1017.9 0.0
03/10:30am 18.4 13.8 9.7 57 4.6 SSE 24 32 13 17 1018.3 1017.9 0.0
03/10:00am 17.7 13.1 9.8 60 4.2 S 24 32 13 17 1018.1 1017.7 0.0
03/09:30am 16.8 13.1 10.2 65 3.5 SSE 20 30 11 16 1017.8 1017.4 0.0
03/09:00am 15.1 11.5 10.7 75 2.3 SSE 20 30 11 16 1017.6 1017.2 0.0
03/08:30am 14.0 11.0 10.8 81 1.7 SSE 17 24 9 13 1017.5 1017.1 0.0
03/08:00am 12.7 10.1 10.6 87 1.1 S 15 20 8 11 1017.0 1016.5 0.0
03/07:30am 11.6 9.8 9.5 87 1.1 S 9 11 5 6 1016.7 1016.2 0.0
03/07:00am 12.0 9.9 9.7 86 1.2 S 11 15 6 8 1016.6 1016.1 0.0
03/06:30am 12.3 10.6 9.7 84 1.3 S 9 17 5 9 1016.1 1015.6 0.0
03/06:00am 12.7 10.6 9.9 83 1.4 S 11 17 6 9 1015.8 1015.3 0.0
03/05:30am 12.8 10.3 9.6 81 1.6 S 13 17 7 9 1015.5 1015.0 0.0
03/05:00am 12.7 10.4 9.0 78 1.9 SSE 11 13 6 7 1015.5 1015.0 0.0
03/04:30am 13.4 10.6 8.5 72 2.5 SSE 13 19 7 10 1015.6 1015.1 0.0
03/04:00am 13.8 10.5 8.0 68 2.9 SSE 15 20 8 11 1015.3 1014.8 0.0
03/03:30am 14.5 10.7 7.5 63 3.5 SSE 17 22 9 12 1015.5 1015.0 0.0
03/03:00am 14.9 11.5 7.5 61 3.7 SSE 15 20 8 11 1015.8 1015.3 0.0
03/02:30am 15.3 11.4 7.3 59 4.0 SSE 17 20 9 11 1016.0 1015.5 0.0
03/02:00am 15.5 12.0 7.0 57 4.2 S 15 22 8 12 1016.3 1015.8 0.0
03/01:30am 15.5 12.3 7.0 57 4.2 SSE 13 20 7 11 1016.3 1015.8 0.0
03/01:00am 15.8 11.9 7.0 56 4.4 S 17 22 9 12 1016.6 1016.1 0.0
03/12:30am 16.0 12.1 7.2 56 4.4 S 17 22 9 12 1016.5 1016.0 0.0
03/12:00am 16.3 12.9 7.5 56 4.4 S 15 20 8 11 1016.4 1015.9 0.0
 
Date/Time
EDT
Temp
°C
App
Temp
°C
Dew
Point
Rel
Hum
%
Delta-T
°C
Wind Press
QNH
hPa
Press
MSL
hPa
Rain
since 9 am
mm
Dir
 
Spd
km/h
Gust
km/h
Spd
kts
Gust
kts
02/11:30pm 16.6 13.6 7.8 56 4.5 SSE 13 20 7 11 1016.6 1016.1 0.0
02/11:00pm 16.9 13.9 7.5 54 4.8 SSE 13 20 7 11 1016.4 1015.9 0.0
02/10:30pm 17.1 12.7 7.5 53 4.9 SSE 20 26 11 14 1016.5 1016.0 0.0
02/10:00pm 18.3 14.0 7.7 50 5.4 S 20 30 11 16 1015.9 1015.4 0.0
02/09:30pm 19.2 14.5 7.9 48 5.9 S 22 30 12 16 1015.4 1014.9 0.0
02/09:00pm 19.8 15.6 8.2 47 6.1 SSE 20 28 11 15 1014.9 1014.4 0.0
02/08:30pm 20.6 16.3 7.9 44 6.6 S 20 32 11 17 1014.9 1014.4 0.0
02/08:00pm 22.5 20.9 6.3 35 8.3 SSW 4 7 2 4 1014.6 1014.1 0.0
02/07:30pm 23.2 20.8 5.1 31 9.1 SW 7 15 4 8 1014.5 1014.0 0.0
02/07:00pm 23.8 21.3 4.7 29 9.6 WSW 7 11 4 6 1014.2 1013.7 0.0
02/06:30pm 24.4 21.4 4.2 27 10.1 WSW 9 17 5 9 1013.9 1013.4 0.0
02/06:00pm 25.2 23.6 4.3 26 10.5 WNW 2 9 1 5 1013.9 1013.4 0.0
02/05:30pm 25.4 22.9 4.5 26 10.6 NW 7 15 4 8 1013.9 1013.4 0.0
02/05:00pm 24.8 21.8 4.0 26 10.4 NNW 9 17 5 9 1013.9 1013.4 0.0
02/04:30pm 24.9 22.2 3.5 25 10.6 WSW 7 15 4 8 1013.7 1013.2 0.0
02/04:00pm 24.8 22.9 5.1 28 10.0 WNW 4 9 2 5 1014.1 1013.6 0.0
02/03:30pm 24.7 22.4 5.0 28 10.0 NNW 6 13 3 7 1014.0 1013.5 0.0
02/03:00pm 24.9 22.7 5.2 28 10.1 W 6 15 3 8 1014.9 1014.4 0.0
02/02:30pm 24.1 21.4 5.5 30 9.5 SW 9 13 5 7 1015.0 1014.5 0.0
02/02:00pm 23.2 21.3 6.9 35 8.5 WNW 6 13 3 7 1015.3 1014.8 0.0
02/01:30pm 23.0 20.5 6.7 35 8.5 NE 9 17 5 9 1016.1 1015.6 0.0
02/01:00pm 20.7 18.1 6.3 39 7.3 NE 9 13 5 7 1016.2 1015.7 0.0
02/12:30pm 20.9 18.9 7.2 41 7.1 N 7 17 4 9 1017.3 1016.8 0.0
02/12:00pm 19.0 16.0 7.8 48 5.8 NNE 13 19 7 10 1017.5 1017.1 0.0
02/11:30am 18.6 16.5 8.3 51 5.4 N 9 15 5 8 1017.9 1017.5 0.0
02/11:00am 17.4 14.9 8.3 55 4.7 N 11 17 6 9 1017.9 1017.5 0.0
02/10:30am 16.0 13.5 8.0 59 4.1 NNE 11 15 6 8 1017.9 1017.5 0.0
02/10:00am 14.3 12.3 8.5 68 2.9 NNE 9 13 5 7 1017.6 1017.2 0.0
02/09:30am 12.3 11.1 8.2 76 2.0 NE 4 7 2 4 1017.9 1017.5 0.0
02/09:00am 11.4 9.8 8.1 80 1.6 NE 6 9 3 5 1018.0 1017.6 0.0
02/08:30am 10.2 8.8 8.8 91 0.7 SE 6 7 3 4 1017.9 1017.5 0.0
02/08:00am 8.5 8.0 7.7 95 0.4 CALM 0 0 0 0 1017.8 1017.4 0.0
02/07:30am 7.8 7.1 6.9 94 0.4 CALM 0 0 0 0 1017.3 1016.8 0.0
02/07:00am 7.8 5.9 6.6 92 0.6 SE 6 7 3 4 1017.0 1016.5 0.0
02/06:30am 8.2 6.3 6.7 90 0.7 SE 6 7 3 4 1017.0 1016.5 0.0
02/06:00am 8.7 6.3 7.0 89 0.8 SE 9 11 5 6 1016.5 1016.0 0.0
02/05:30am 8.8 6.1 7.3 90 0.7 SE 11 15 6 8 1016.5 1016.0 0.0
02/05:00am 9.1 6.0 7.4 89 0.8 SSE 13 15 7 8 1016.8 1016.3 0.0
02/04:30am 9.4 6.0 7.5 88 0.9 SSE 15 20 8 11 1016.8 1016.3 0.0
02/04:00am 9.7 6.3 7.8 88 0.9 SSE 15 19 8 10 1016.9 1016.4 0.0
02/03:30am 9.7 6.3 7.6 87 1.0 SSE 15 20 8 11 1017.0 1016.5 0.0
02/03:00am 10.0 7.0 7.9 87 1.0 SSE 13 19 7 10 1017.3 1016.8 0.0
02/02:30am 10.3 7.3 7.9 85 1.2 S 13 17 7 9 1017.6 1017.2 0.0
02/02:00am 10.8 7.5 8.0 83 1.4 SSE 15 19 8 10 1018.0 1017.6 0.0
02/01:30am 11.1 7.8 8.0 81 1.5 SE 15 22 8 12 1017.9 1017.5 0.0
02/01:00am 11.5 7.9 8.4 81 1.5 SE 17 24 9 13 1018.2 1017.8 0.0
02/12:30am 11.7 7.7 8.4 80 1.6 SSE 19 24 10 13 1019.0 1018.5 0.0
02/12:00am 12.1 7.9 8.4 78 1.8 SE 20 30 11 16 1018.9 1018.4 0.0
 
Date/Time
EDT
Temp
°C
App
Temp
°C
Dew
Point
Rel
Hum
%
Delta-T
°C
Wind Press
QNH
hPa
Press
MSL
hPa
Rain
since 9 am
mm
Dir
 
Spd
km/h
Gust
km/h
Spd
kts
Gust
kts
01/11:30pm 12.6 8.4 8.3 75 2.1 SSE 20 26 11 14 1019.1 1018.6 0.0
01/11:00pm 13.0 8.8 8.1 72 2.4 SSE 20 26 11 14 1019.0 1018.5 0.0
01/10:30pm 13.8 10.2 8.4 70 2.7 SSE 17 20 9 11 1019.1 1018.6 0.0
01/10:00pm 14.2 10.6 8.4 68 2.9 SSE 17 24 9 13 1018.6 1018.2 0.0
01/09:30pm 15.0 10.9 8.5 65 3.3 SSE 20 28 11 15 1017.8 1017.4 0.0
01/09:00pm 15.7 11.5 8.4 62 3.7 SSE 20 30 11 16 1017.2 1016.7 0.0
01/08:30pm 16.6 12.6 8.3 58 4.3 SSE 19 26 10 14 1017.2 1016.7 0.0
01/08:00pm 17.8 13.6 8.1 53 5.0 SE 20 28 11 15 1017.0 1016.5 0.0
01/07:30pm 19.3 15.0 7.7 47 6.0 SSE 20 30 11 16 1016.8 1016.3 0.0
01/07:00pm 20.1 15.3 7.5 44 6.5 SSE 22 30 12 16 1016.4 1015.9 0.0
01/06:30pm 21.0 15.9 7.6 42 7.0 SSE 24 35 13 19 1016.1 1015.6 0.0
01/06:00pm 21.5 16.7 7.3 40 7.4 S 22 35 12 19 1015.9 1015.4 0.0
01/05:30pm 22.1 16.7 7.9 40 7.5 SE 26 35 14 19 1015.8 1015.3 0.0
01/05:00pm 22.6 17.7 8.3 40 7.6 SSE 24 35 13 19 1015.7 1015.2 0.0
01/04:30pm 22.9 18.2 6.2 34 8.6 S 20 32 11 17 1015.6 1015.1 0.0
01/04:00pm 21.6 16.9 7.8 41 7.2 S 22 35 12 19 1015.8 1015.3 0.0
01/03:30pm 22.3 17.3 6.5 36 8.1 S 22 33 12 18 1015.7 1015.2 0.0
01/03:00pm 22.4 17.7 7.8 39 7.7 S 22 30 12 16 1015.8 1015.3 0.0
01/02:30pm 21.8 17.6 8.3 42 7.2 S 20 30 11 16 1015.8 1015.3 0.0
01/02:00pm 21.2 17.0 7.4 41 7.2 S 19 28 10 15 1015.9 1015.4 0.0
01/01:30pm 20.1 16.8 9.4 50 5.7 SSW 17 28 9 15 1016.0 1015.5 0.0
01/01:00pm 21.5 18.2 10.9 51 5.9 S 19 32 10 17 1015.8 1015.3 0.0
01/12:30pm 19.4 15.8 10.4 56 4.9 S 20 28 11 15 1016.1 1015.6 0.0
01/12:00pm 18.6 14.7 10.7 60 4.3 SSW 22 33 12 18 1016.2 1015.7 0.0
01/11:30am 17.2 14.1 11.7 70 3.0 SSW 19 30 10 16 1015.9 1015.4 0.0
01/11:00am 17.1 14.4 11.8 71 2.9 S 17 26 9 14 1015.4 1014.9 0.0
01/10:30am 16.5 13.8 11.6 73 2.7 SSW 17 26 9 14 1015.1 1014.4 0.0
01/10:00am 16.0 13.7 12.9 82 1.7 SSW 17 24 9 13 1014.7 1014.0 0.0
01/09:30am 15.1 13.2 13.0 87 1.2 SW 15 20 8 11 1014.3 1013.6 0.0
01/09:00am 14.1 13.1 13.3 95 0.4 SW 11 20 6 11 1013.8 1013.1 5.2
01/08:30am 12.9 12.0 12.7 99 0.1 WSW 9 15 5 8 1013.3 1012.6 5.2
01/08:00am 11.7 11.0 11.5 99 0.1 WSW 6 9 3 5 1012.7 1012.1 5.2
01/07:30am 11.1 11.0 10.9 99 0.1 WSW 2 9 1 5 1012.2 1011.6 5.2
01/07:00am 11.3 10.9 11.1 99 0.1 WSW 4 7 2 4 1011.7 1011.1 5.2
01/06:30am 11.7 10.8 11.5 99 0.1 WSW 7 11 4 6 1011.2 1010.5 5.2
01/06:00am 12.4 11.8 12.2 99 0.1 WSW 7 11 4 6 1010.8 1010.1 5.2
01/05:30am 13.0 11.8 12.8 99 0.1 SW 11 15 6 8 1010.4 1009.7 5.2
01/05:00am 13.4 11.9 13.2 99 0.1 SW 13 20 7 11 1010.2 1009.5 5.2
01/04:30am 13.6 12.6 13.4 99 0.1 WSW 11 17 6 9 1010.0 1009.3 5.2
01/04:00am 13.4 13.0 13.1 98 0.2 WSW 7 11 4 6 1009.7 1009.0 5.2
01/03:30am 13.4 13.2 12.9 97 0.3 WSW 6 9 3 5 1009.6 1008.9 5.0
01/03:00am 13.3 12.0 12.5 95 0.4 SW 11 15 6 8 1009.4 1008.7 5.0
01/02:30am 13.5 12.9 12.4 93 0.6 SW 7 11 4 6 1009.4 1008.7 5.0
01/02:00am 14.0 13.1 12.6 91 0.8 SW 9 15 5 8 1009.5 1008.8 5.0
01/01:30am 14.5 13.3 12.7 89 1.0 SW 11 19 6 10 1009.4 1008.7 5.0
01/01:00am 14.6 13.3 12.6 88 1.1 SSW 11 17 6 9 1009.2 1008.5 5.0
01/12:30am 14.4 12.0 12.6 89 1.0 SW 17 22 9 12 1009.1 1008.4 5.0
01/12:00am 14.9 12.2 13.6 92 0.7 SW 20 33 11 18 1008.9 1008.2 5.0
 
Date/Time
EDT
Temp
°C
App
Temp
°C
Dew
Point
Rel
Hum
%
Delta-T
°C
Wind Press
QNH
hPa
Press
MSL
hPa
Rain
since 9 am
mm
Dir
 
Spd
km/h
Gust
km/h
Spd
kts
Gust
kts
28/11:30pm 15.3 12.8 14.0 92 0.7 SW 20 33 11 18 1008.7 1008.0 5.0
28/11:00pm 16.1 13.7 15.5 96 0.4 SSW 22 33 12 18 1008.1 1007.4 5.0
28/10:30pm 17.2 15.4 16.1 93 0.7 SSW 20 28 11 15 1007.5 1006.9 5.0
28/10:00pm 17.6 16.6 16.6 94 0.6 SSW 17 28 9 15 1007.5 1006.9 5.0
28/09:30pm 17.6 16.9 17.3 98 0.2 SSW 17 24 9 13 1006.8 1006.2 5.0
28/09:00pm 18.6 18.4 18.4 99 0.1 SSW 17 22 9 12 1006.1 1005.4 4.8
28/08:30pm 18.9 20.7 18.7 99 0.1 SW 7 11 4 6 1006.2 1005.5 4.6
28/08:00pm 19.0 20.8 18.3 96 0.4 NW 6 9 3 5 1006.0 1005.3 4.2
28/07:30pm 19.0 19.7 18.0 94 0.6 SW 11 19 6 10 1005.4 1004.7 4.0
28/07:00pm 19.7 21.5 18.4 92 0.8 WSW 6 13 3 7 1005.0 1004.3 2.8
28/06:30pm 19.3 19.1 17.6 90 1.0 SW 15 24 8 13 1005.0 1004.3 2.6
28/06:09pm 20.4 16.8 17.2 82 2.0 SW 32 50 17 27 1004.5 1003.8 1.2

Other Formats:

Comma delimited format used in spreadsheet applications
http://www.bom.gov.au/fwo/IDV60801/IDV60801.95827.axf

JavaScript Object Notation format (JSON) in row-major order
http://www.bom.gov.au/fwo/IDV60801/IDV60801.95827.json